Time;durP1;ratioP1;P1;durP2;ratioP2;P2;SDS_P1;SDS_P2;PMS_P1;PMS_P2;Temp;Humidity;BMP_temperature;BMP_pressure;BME280_temperature;BME280_humidity;BME280_pressure;Samples;Min_cycle;Max_cycle;Signal;HPM_P1;HPM_P2
2022/12/23 00:01:40;;;;;;;0.98;0.90;;;;;;;;;;5070514;28;20024;-76
2022/12/23 00:04:07;;;;;;;4.00;0.90;;;;;;;;;;5070569;28;20028;-76
2022/12/23 00:06:33;;;;;;;1.50;0.80;;;;;;;;;;5069032;28;20032;-77
2022/12/23 00:08:58;;;;;;;2.40;1.00;;;;;;;;;;5070697;28;20552;-77
2022/12/23 00:11:25;;;;;;;1.40;0.80;;;;;;;;;;5067556;28;20048;-77
2022/12/23 00:16:40;;;;;;;1.45;0.80;;;;;;;;;;5069106;28;20445;-76
2022/12/23 00:19:05;;;;;;;0.80;0.80;;;;;;;;;;5052245;28;20020;-77
2022/12/23 00:21:31;;;;;;;1.20;0.73;;;;;;;;;;5051851;28;20178;-77
2022/12/23 00:23:59;;;;;;;1.30;1.02;;;;;;;;;;5070509;28;20033;-77
2022/12/23 00:26:26;;;;;;;0.95;0.80;;;;;;;;;;5068977;28;20025;-76
2022/12/23 00:28:57;;;;;;;1.02;1.00;;;;;;;;;;5069221;28;20017;-77
2022/12/23 00:31:23;;;;;;;0.93;0.90;;;;;;;;;;5067785;28;20170;-76
2022/12/23 00:33:50;;;;;;;2.28;0.90;;;;;;;;;;5070077;28;20517;-77
2022/12/23 00:36:39;;;;;;;1.25;0.98;;;;;;;;;;5052657;28;20025;-77
2022/12/23 00:44:40;;;;;;;0.80;0.80;;;;;;;;;;5068142;28;20162;-77
2022/12/23 00:49:40;;;;;;;1.50;0.90;;;;;;;;;;5066861;28;20398;-76
2022/12/23 00:49:51;;;;;;;2.63;0.80;;;;;;;;;;5068658;28;20029;-77
2022/12/23 00:52:19;;;;;;;0.73;0.73;;;;;;;;;;5071796;28;20115;-76
2022/12/23 00:54:46;;;;;;;1.20;0.60;;;;;;;;;;5075903;28;20122;-76
2022/12/23 00:57:12;;;;;;;0.70;0.70;;;;;;;;;;5082308;28;20013;-78
2022/12/23 00:59:37;;;;;;;2.63;1.05;;;;;;;;;;5086404;28;20067;-76
2022/12/23 01:07:33;;;;;;;0.52;0.50;;;;;;;;;;5071196;28;20046;-78
2022/12/23 01:10:02;;;;;;;0.60;0.60;;;;;;;;;;5073915;28;20397;-76
2022/12/23 01:12:27;;;;;;;0.75;0.60;;;;;;;;;;5069547;28;20033;-76
2022/12/23 01:14:55;;;;;;;0.70;0.70;;;;;;;;;;5073362;28;20074;-76
2022/12/23 01:17:21;;;;;;;0.47;0.47;;;;;;;;;;5072915;28;20032;-76
2022/12/23 01:19:46;;;;;;;0.47;0.47;;;;;;;;;;5072513;28;20423;-76
2022/12/23 01:22:12;;;;;;;0.68;0.68;;;;;;;;;;5071989;28;20495;-76
2022/12/23 01:24:37;;;;;;;0.50;0.50;;;;;;;;;;5072788;28;20032;-76
2022/12/23 01:27:04;;;;;;;1.20;0.60;;;;;;;;;;5072757;28;20176;-76
2022/12/23 01:29:30;;;;;;;0.60;0.60;;;;;;;;;;5071463;28;20060;-76
2022/12/23 01:31:55;;;;;;;0.73;0.70;;;;;;;;;;5072234;28;20057;-76
2022/12/23 01:34:21;;;;;;;1.00;0.60;;;;;;;;;;5053850;28;20024;-76
2022/12/23 01:36:46;;;;;;;0.60;0.60;;;;;;;;;;5070776;28;20119;-75
2022/12/23 01:39:14;;;;;;;0.68;0.68;;;;;;;;;;5069435;28;20025;-76
2022/12/23 01:44:59;;;;;;;0.50;0.50;;;;;;;;;;5070771;28;20040;-76
2022/12/23 01:47:38;;;;;;;0.70;0.70;;;;;;;;;;5070163;28;20028;-75
2022/12/23 01:50:18;;;;;;;0.60;0.60;;;;;;;;;;5070490;28;20093;-76
2022/12/23 01:52:56;;;;;;;1.77;0.73;;;;;;;;;;5052913;28;20037;-78
2022/12/23 01:55:25;;;;;;;1.13;0.60;;;;;;;;;;5050308;28;20028;-75
2022/12/23 01:57:57;;;;;;;0.95;0.68;;;;;;;;;;5070806;28;20048;-76
2022/12/23 02:05:52;;;;;;;2.47;1.05;;;;;;;;;;5065588;28;20048;-76
2022/12/23 02:11:30;;;;;;;0.68;0.68;;;;;;;;;;5071306;28;20584;-76
2022/12/23 02:17:34;;;;;;;2.17;0.60;;;;;;;;;;5073260;28;20098;-75
2022/12/23 02:20:25;;;;;;;0.70;0.70;;;;;;;;;;5074257;28;20032;-75
2022/12/23 02:23:12;;;;;;;0.77;0.63;;;;;;;;;;5043877;28;20037;-75
2022/12/23 02:25:56;;;;;;;0.60;0.60;;;;;;;;;;5079225;28;20033;-74
2022/12/23 02:29:01;;;;;;;1.00;0.60;;;;;;;;;;5077276;28;20029;-76
2022/12/23 02:31:34;;;;;;;0.70;0.70;;;;;;;;;;5078203;28;20024;-77
2022/12/23 02:34:32;;;;;;;0.60;0.60;;;;;;;;;;5076999;28;20068;-77
2022/12/23 02:37:06;;;;;;;0.40;0.40;;;;;;;;;;5069572;28;20086;-76
2022/12/23 02:39:41;;;;;;;0.85;0.70;;;;;;;;;;5069352;28;20037;-77
2022/12/23 02:42:19;;;;;;;1.33;0.70;;;;;;;;;;5071138;28;20016;-74
2022/12/23 02:45:06;;;;;;;0.77;0.68;;;;;;;;;;5072124;28;20029;-77
2022/12/23 02:47:43;;;;;;;0.70;0.70;;;;;;;;;;5071168;28;20039;-77
2022/12/23 02:50:15;;;;;;;0.90;0.70;;;;;;;;;;5070700;28;20031;-76
2022/12/23 02:52:43;;;;;;;1.08;0.65;;;;;;;;;;5071122;28;20024;-76
2022/12/23 02:55:13;;;;;;;0.80;0.80;;;;;;;;;;5067384;28;20024;-77
2022/12/23 02:57:40;;;;;;;;;;;;;;;;;;5069587;28;20034;-77
2022/12/23 03:00:09;;;;;;;0.70;0.70;;;;;;;;;;5048288;28;19916;-77
2022/12/23 03:02:38;;;;;;;;;;;;;;;;;;5069427;28;20024;-77
2022/12/23 03:05:24;;;;;;;0.52;0.52;;;;;;;;;;5069329;28;19982;-77
2022/12/23 03:07:52;;;;;;;0.60;0.60;;;;;;;;;;5070497;28;20036;-77
2022/12/23 03:10:24;;;;;;;0.50;0.50;;;;;;;;;;5068784;28;20065;-77
2022/12/23 03:12:56;;;;;;;1.92;0.80;;;;;;;;;;5066971;28;20032;-77
2022/12/23 03:15:36;;;;;;;0.73;0.60;;;;;;;;;;5065520;28;20093;-77
2022/12/23 03:18:11;;;;;;;0.60;0.60;;;;;;;;;;5066369;28;20021;-76
2022/12/23 03:21:02;;;;;;;0.70;0.70;;;;;;;;;;5069261;28;20033;-77
2022/12/23 03:23:39;;;;;;;1.58;0.70;;;;;;;;;;5067060;28;20326;-77
2022/12/23 03:26:20;;;;;;;0.60;0.60;;;;;;;;;;5078220;28;20102;-77
2022/12/23 03:29:12;;;;;;;1.08;0.73;;;;;;;;;;5081423;28;20030;-77
2022/12/23 03:31:42;;;;;;;0.60;0.60;;;;;;;;;;5069130;28;20034;-77
2022/12/23 03:34:09;;;;;;;;;;;;;;;;;;5051587;28;20089;-77
2022/12/23 03:36:43;;;;;;;0.50;0.50;;;;;;;;;;5068468;28;20387;-77
2022/12/23 03:39:13;;;;;;;0.80;0.80;;;;;;;;;;5071266;28;20095;-78
2022/12/23 03:41:43;;;;;;;1.05;0.50;;;;;;;;;;5070377;28;20024;-78
2022/12/23 03:44:14;;;;;;;0.60;0.60;;;;;;;;;;5050824;28;20081;-77
2022/12/23 03:46:45;;;;;;;1.15;0.80;;;;;;;;;;5069593;28;20108;-77
2022/12/23 03:49:41;;;;;;;1.15;0.60;;;;;;;;;;5071417;28;20035;-78
2022/12/23 03:52:10;;;;;;;0.70;0.70;;;;;;;;;;5060015;28;20043;-77
2022/12/23 03:54:43;;;;;;;0.73;0.70;;;;;;;;;;5068217;28;20107;-76
2022/12/23 03:57:12;;;;;;;0.75;0.75;;;;;;;;;;5065388;28;20028;-77
2022/12/23 03:59:46;;;;;;;1.02;1.00;;;;;;;;;;5069355;28;20471;-77
2022/12/23 04:02:50;;;;;;;0.68;0.68;;;;;;;;;;5067840;28;20028;-76
2022/12/23 04:05:43;;;;;;;1.13;1.02;;;;;;;;;;4967705;28;20027;-76
2022/12/23 04:08:21;;;;;;;0.80;0.80;;;;;;;;;;5057810;28;20415;-76
2022/12/23 04:10:47;;;;;;;0.60;0.60;;;;;;;;;;5048918;28;20479;-76
2022/12/23 04:13:15;;;;;;;0.98;0.70;;;;;;;;;;5068794;28;20031;-76
2022/12/23 04:15:41;;;;;;;0.70;0.70;;;;;;;;;;5069861;28;20032;-76
2022/12/23 04:18:08;;;;;;;0.80;0.80;;;;;;;;;;5070202;28;20103;-76
2022/12/23 04:20:33;;;;;;;0.90;0.90;;;;;;;;;;5070612;28;20043;-76
2022/12/23 04:22:59;;;;;;;1.30;0.90;;;;;;;;;;5070870;28;20479;-76
2022/12/23 04:25:27;;;;;;;0.82;0.82;;;;;;;;;;5072393;28;20036;-75
2022/12/23 04:27:55;;;;;;;1.42;0.70;;;;;;;;;;5072177;28;20063;-76
2022/12/23 04:30:22;;;;;;;1.10;0.73;;;;;;;;;;5075691;28;20479;-75
2022/12/23 04:32:48;;;;;;;1.20;0.77;;;;;;;;;;5074138;28;20029;-77
2022/12/23 04:35:13;;;;;;;1.05;1.02;;;;;;;;;;5070228;28;20080;-76
2022/12/23 04:37:41;;;;;;;0.80;0.80;;;;;;;;;;5070141;28;20029;-76
2022/12/23 04:40:10;;;;;;;0.80;0.80;;;;;;;;;;5069465;28;20090;-76
2022/12/23 04:42:35;;;;;;;0.60;0.60;;;;;;;;;;5069670;28;20071;-76
2022/12/23 04:45:03;;;;;;;0.60;0.60;;;;;;;;;;5052005;28;20459;-76
2022/12/23 04:47:28;;;;;;;0.80;0.80;;;;;;;;;;5052957;28;20094;-77
2022/12/23 04:49:54;;;;;;;0.70;0.70;;;;;;;;;;5069026;28;20459;-77
2022/12/23 04:52:22;;;;;;;0.63;0.63;;;;;;;;;;5068601;28;20040;-77
2022/12/23 04:54:47;;;;;;;0.85;0.82;;;;;;;;;;5051141;28;20032;-76
2022/12/23 04:57:16;;;;;;;0.60;0.60;;;;;;;;;;5069208;28;20031;-76
2022/12/23 04:59:41;;;;;;;1.50;0.60;;;;;;;;;;5070016;28;20038;-77
2022/12/23 05:02:07;;;;;;;0.73;0.73;;;;;;;;;;5069527;28;20535;-77
2022/12/23 05:04:35;;;;;;;0.95;0.70;;;;;;;;;;5069596;28;20031;-76
2022/12/23 05:07:03;;;;;;;1.45;0.75;;;;;;;;;;5069153;28;20047;-76
2022/12/23 05:09:28;;;;;;;1.20;1.05;;;;;;;;;;5069281;28;20419;-77
2022/12/23 05:11:53;;;;;;;4.28;1.00;;;;;;;;;;5067443;28;20020;-77
2022/12/23 05:14:19;;;;;;;0.65;0.65;;;;;;;;;;5069186;28;20067;-77
2022/12/23 05:16:47;;;;;;;1.55;0.60;;;;;;;;;;5069089;28;20074;-77
2022/12/23 05:19:12;;;;;;;0.70;0.70;;;;;;;;;;5050513;28;20044;-75
2022/12/23 05:21:40;;;;;;;1.23;1.00;;;;;;;;;;5065704;28;20067;-76
2022/12/23 05:24:05;;;;;;;1.33;0.70;;;;;;;;;;5067095;28;20027;-76
2022/12/23 05:26:33;;;;;;;0.57;0.57;;;;;;;;;;5076196;28;20028;-75
2022/12/23 05:28:59;;;;;;;0.95;0.90;;;;;;;;;;5066778;28;20063;-76
2022/12/23 05:31:26;;;;;;;1.20;1.10;;;;;;;;;;5050969;28;20514;-76
2022/12/23 05:33:52;;;;;;;1.05;0.95;;;;;;;;;;5066572;28;20056;-76
2022/12/23 05:36:17;;;;;;;0.98;0.98;;;;;;;;;;5068667;28;20060;-75
2022/12/23 05:38:45;;;;;;;0.70;0.70;;;;;;;;;;5066220;28;20039;-75
2022/12/23 05:41:13;;;;;;;0.82;0.82;;;;;;;;;;5071772;28;20032;-75
2022/12/23 05:43:38;;;;;;;4.47;0.90;;;;;;;;;;5054213;28;20016;-75
2022/12/23 05:46:06;;;;;;;1.80;1.15;;;;;;;;;;5068781;28;20398;-76
2022/12/23 05:48:34;;;;;;;1.13;1.02;;;;;;;;;;5072697;28;20031;-76
2022/12/23 05:50:59;;;;;;;1.00;0.90;;;;;;;;;;5072770;28;20082;-76
2022/12/23 05:53:24;;;;;;;1.42;1.23;;;;;;;;;;5055535;28;20075;-75
2022/12/23 05:55:50;;;;;;;1.13;1.10;;;;;;;;;;5080324;28;20032;-76
2022/12/23 05:58:18;;;;;;;1.67;1.10;;;;;;;;;;5081961;28;20052;-75
2022/12/23 06:00:43;;;;;;;0.98;0.98;;;;;;;;;;5055435;28;20509;-75
2022/12/23 06:03:10;;;;;;;0.98;0.85;;;;;;;;;;5072359;28;20103;-76
2022/12/23 06:05:37;;;;;;;0.73;0.73;;;;;;;;;;5071780;28;20032;-75
2022/12/23 06:08:05;;;;;;;1.33;0.90;;;;;;;;;;5071902;28;20435;-77
2022/12/23 06:10:30;;;;;;;0.93;0.93;;;;;;;;;;5072960;28;20066;-77
2022/12/23 06:12:56;;;;;;;1.52;0.90;;;;;;;;;;5071839;28;20044;-76
2022/12/23 06:15:23;;;;;;;1.40;1.30;;;;;;;;;;5072132;28;20453;-77
2022/12/23 06:17:49;;;;;;;1.73;1.40;;;;;;;;;;5069307;28;21186;-76
2022/12/23 06:20:14;;;;;;;1.48;1.38;;;;;;;;;;5069159;28;20072;-79
2022/12/23 06:22:42;;;;;;;1.85;1.10;;;;;;;;;;5069897;28;20059;-76
2022/12/23 06:25:10;;;;;;;1.60;1.42;;;;;;;;;;5072064;28;20360;-78
2022/12/23 06:27:35;;;;;;;3.50;2.33;;;;;;;;;;5071714;28;20035;-78
2022/12/23 06:30:01;;;;;;;2.53;2.08;;;;;;;;;;5071954;28;20028;-78
2022/12/23 06:32:26;;;;;;;1.85;1.65;;;;;;;;;;5071066;28;20028;-78
2022/12/23 06:34:52;;;;;;;2.20;1.73;;;;;;;;;;5052818;28;20326;-78
2022/12/23 06:37:19;;;;;;;15.50;6.20;;;;;;;;;;5068468;28;20024;-78
2022/12/23 06:39:44;;;;;;;10.73;4.18;;;;;;;;;;5052222;28;20491;-78
2022/12/23 06:42:10;;;;;;;4.93;2.70;;;;;;;;;;5070705;28;20044;-78
2022/12/23 06:44:35;;;;;;;3.47;2.35;;;;;;;;;;5071159;28;20017;-78
2022/12/23 06:47:00;;;;;;;2.55;1.90;;;;;;;;;;5071703;28;20489;-79
2022/12/23 06:49:26;;;;;;;2.78;0.90;;;;;;;;;;5067556;28;20040;-77
2022/12/23 06:51:56;;;;;;;1.10;1.10;;;;;;;;;;5071268;28;20963;-78
2022/12/23 06:54:21;;;;;;;1.08;1.00;;;;;;;;;;5069306;28;20033;-77
2022/12/23 06:56:49;;;;;;;1.10;1.10;;;;;;;;;;5071031;28;20016;-78
2022/12/23 06:59:14;;;;;;;1.00;1.00;;;;;;;;;;5070862;28;20504;-78
2022/12/23 07:01:39;;;;;;;1.20;1.20;;;;;;;;;;5071283;28;20036;-78
2022/12/23 07:04:07;;;;;;;3.25;1.42;;;;;;;;;;5070750;28;20497;-77
2022/12/23 07:06:33;;;;;;;1.42;1.08;;;;;;;;;;5069632;28;20490;-78
2022/12/23 07:08:58;;;;;;;1.00;0.93;;;;;;;;;;5070690;28;20046;-78
2022/12/23 07:11:26;;;;;;;0.90;0.90;;;;;;;;;;5070821;28;20028;-77
2022/12/23 07:13:51;;;;;;;1.25;1.15;;;;;;;;;;5069243;28;20035;-77
2022/12/23 07:16:17;;;;;;;1.10;1.10;;;;;;;;;;5064469;28;20068;-78
2022/12/23 07:18:42;;;;;;;1.00;1.00;;;;;;;;;;5070465;28;20021;-77
2022/12/23 07:21:10;;;;;;;1.63;1.52;;;;;;;;;;5069936;28;20518;-78
2022/12/23 07:23:38;;;;;;;2.08;1.60;;;;;;;;;;5070561;28;20024;-77
2022/12/23 07:26:04;;;;;;;3.05;2.00;;;;;;;;;;5069470;28;20028;-79
2022/12/23 07:28:29;;;;;;;1.88;1.58;;;;;;;;;;5069918;28;20036;-78
2022/12/23 07:30:57;;;;;;;1.00;1.00;;;;;;;;;;5052461;28;20152;-78
2022/12/23 07:33:25;;;;;;;1.15;1.05;;;;;;;;;;5068790;28;20104;-78
2022/12/23 07:35:50;;;;;;;3.08;1.90;;;;;;;;;;5070907;28;20719;-78
2022/12/23 07:38:16;;;;;;;1.88;1.77;;;;;;;;;;5069533;28;20116;-78
2022/12/23 07:40:47;;;;;;;1.02;1.00;;;;;;;;;;5068021;28;20383;-78
2022/12/23 07:43:13;;;;;;;1.35;1.25;;;;;;;;;;5066467;28;20032;-77
2022/12/23 07:45:38;;;;;;;1.40;1.30;;;;;;;;;;5071307;28;20028;-77
2022/12/23 07:48:07;;;;;;;1.67;1.40;;;;;;;;;;5070595;28;20501;-78
2022/12/23 07:50:37;;;;;;;1.65;1.33;;;;;;;;;;5049099;28;20588;-78
2022/12/23 07:53:03;;;;;;;2.28;2.08;;;;;;;;;;5070308;28;20033;-78
2022/12/23 07:55:28;;;;;;;1.10;1.10;;;;;;;;;;5069949;28;20027;-78
2022/12/23 07:57:53;;;;;;;1.23;1.13;;;;;;;;;;5068958;28;20479;-78
2022/12/23 08:00:19;;;;;;;2.35;1.95;;;;;;;;;;5069748;28;20074;-78
2022/12/23 08:02:45;;;;;;;2.10;1.65;;;;;;;;;;5051500;28;20028;-78
2022/12/23 08:05:12;;;;;;;1.63;1.30;;;;;;;;;;5069645;28;20033;-78
2022/12/23 08:07:37;;;;;;;1.48;1.38;;;;;;;;;;5043329;28;20122;-78
2022/12/23 08:10:04;;;;;;;1.40;1.30;;;;;;;;;;5063985;28;20117;-78
2022/12/23 08:12:29;;;;;;;1.20;0.98;;;;;;;;;;5066577;28;20041;-78
2022/12/23 08:14:55;;;;;;;1.48;1.38;;;;;;;;;;5064187;28;20032;-78
2022/12/23 08:17:23;;;;;;;1.42;1.33;;;;;;;;;;5069359;28;20021;-78
2022/12/23 08:19:48;;;;;;;1.35;1.25;;;;;;;;;;5068251;28;20028;-78
2022/12/23 08:22:14;;;;;;;1.20;1.10;;;;;;;;;;5050444;28;20016;-78
2022/12/23 08:24:39;;;;;;;1.90;1.40;;;;;;;;;;5056968;28;20036;-79
2022/12/23 08:27:05;;;;;;;1.48;1.27;;;;;;;;;;5066237;28;20080;-78
2022/12/23 08:29:31;;;;;;;1.30;1.20;;;;;;;;;;5048686;28;20039;-77
2022/12/23 08:31:56;;;;;;;1.40;1.20;;;;;;;;;;5067083;28;20095;-78
2022/12/23 08:34:22;;;;;;;1.90;1.60;;;;;;;;;;5070283;28;20545;-78
2022/12/23 08:36:50;;;;;;;3.17;1.70;;;;;;;;;;5070286;28;20021;-79
2022/12/23 08:39:18;;;;;;;1.90;1.70;;;;;;;;;;5070155;28;20032;-78
2022/12/23 08:41:47;;;;;;;6.93;3.97;;;;;;;;;;5066776;28;20108;-79
2022/12/23 08:44:13;;;;;;;2.60;1.80;;;;;;;;;;5069255;28;20020;-79
2022/12/23 08:46:39;;;;;;;2.17;1.30;;;;;;;;;;5061288;28;20100;-78
2022/12/23 08:49:05;;;;;;;1.60;1.50;;;;;;;;;;5052142;28;20513;-78
2022/12/23 08:51:35;;;;;;;1.50;1.40;;;;;;;;;;5070090;28;20025;-78
2022/12/23 08:54:00;;;;;;;1.30;1.20;;;;;;;;;;5070341;28;20032;-79
2022/12/23 08:56:31;;;;;;;1.55;1.45;;;;;;;;;;5072702;28;20032;-78
2022/12/23 08:58:57;;;;;;;1.92;1.40;;;;;;;;;;5055211;28;20024;-78
2022/12/23 09:01:26;;;;;;;1.83;1.50;;;;;;;;;;5072121;28;20032;-77
2022/12/23 09:03:58;;;;;;;2.53;1.35;;;;;;;;;;5072045;28;20112;-77
2022/12/23 09:06:30;;;;;;;2.10;1.70;;;;;;;;;;5072444;28;20529;-77
2022/12/23 09:08:56;;;;;;;3.17;2.20;;;;;;;;;;5071702;28;20064;-77
2022/12/23 09:11:26;;;;;;;3.20;1.50;;;;;;;;;;5073326;28;20051;-78
2022/12/23 09:13:54;;;;;;;1.55;1.40;;;;;;;;;;5071059;28;20028;-79
2022/12/23 09:16:23;;;;;;;1.17;1.08;;;;;;;;;;5070948;28;20024;-78
2022/12/23 09:18:48;;;;;;;1.02;1.00;;;;;;;;;;5071945;28;20031;-78
2022/12/23 09:21:16;;;;;;;1.27;1.17;;;;;;;;;;5071021;28;20032;-79
2022/12/23 09:23:42;;;;;;;2.28;1.50;;;;;;;;;;5072004;28;20029;-79
2022/12/23 09:26:17;;;;;;;1.58;1.48;;;;;;;;;;5055190;28;20039;-80
2022/12/23 09:28:43;;;;;;;8.85;5.30;;;;;;;;;;5071235;28;20051;-78
2022/12/23 09:31:10;;;;;;;4.65;3.00;;;;;;;;;;5068905;28;20495;-79
2022/12/23 09:33:35;;;;;;;3.58;2.53;;;;;;;;;;5073148;28;20486;-79
2022/12/23 09:36:02;;;;;;;2.50;2.00;;;;;;;;;;5072577;28;20043;-78
2022/12/23 09:38:28;;;;;;;2.20;1.98;;;;;;;;;;5084661;28;20032;-78
2022/12/23 09:41:01;;;;;;;1.73;1.63;;;;;;;;;;5072434;28;20025;-78
2022/12/23 09:43:29;;;;;;;1.80;1.50;;;;;;;;;;5070225;28;20033;-79
2022/12/23 09:46:13;;;;;;;1.60;1.40;;;;;;;;;;5072557;28;20031;-78
2022/12/23 09:48:44;;;;;;;1.55;1.40;;;;;;;;;;5070408;28;20028;-77
2022/12/23 09:51:11;;;;;;;1.30;1.20;;;;;;;;;;5054387;28;20028;-78
2022/12/23 09:53:58;;;;;;;2.13;1.70;;;;;;;;;;5053834;28;20059;-80
2022/12/23 09:56:33;;;;;;;2.15;1.80;;;;;;;;;;5070878;28;20386;-80
2022/12/23 09:59:18;;;;;;;1.90;1.80;;;;;;;;;;5072169;28;20028;-79
2022/12/23 10:02:04;;;;;;;5.15;1.50;;;;;;;;;;5071517;28;20036;-79
2022/12/23 10:04:35;;;;;;;1.00;1.00;;;;;;;;;;5069653;28;20098;-79
2022/12/23 10:07:13;;;;;;;1.92;1.45;;;;;;;;;;5072990;28;20055;-79
2022/12/23 10:09:42;;;;;;;1.67;1.58;;;;;;;;;;5070395;28;20174;-77
2022/12/23 10:12:18;;;;;;;2.05;1.95;;;;;;;;;;5068360;28;20032;-79
2022/12/23 10:14:48;;;;;;;2.22;1.42;;;;;;;;;;5053312;28;20031;-78
2022/12/23 10:17:14;;;;;;;;;;;;;;;;;;5070077;28;20024;-79
2022/12/23 10:19:48;;;;;;;1.77;1.40;;;;;;;;;;5071677;28;19916;-79
2022/12/23 10:22:15;;;;;;;1.40;1.30;;;;;;;;;;5072403;28;20023;-78
2022/12/23 10:24:44;;;;;;;1.30;1.20;;;;;;;;;;5054161;28;20421;-78
2022/12/23 10:27:33;;;;;;;1.98;1.00;;;;;;;;;;5054577;28;20028;-77
2022/12/23 10:30:05;;;;;;;1.10;1.00;;;;;;;;;;5070364;28;20021;-78
2022/12/23 10:32:59;;;;;;;54.00;19.88;;;;;;;;;;5070933;28;20047;-77
2022/12/23 10:36:04;;;;;;;40.35;18.40;;;;;;;;;;5075231;28;20024;-77
2022/12/23 10:38:51;;;;;;;7.53;4.13;;;;;;;;;;5076555;28;20466;-77
2022/12/23 10:41:46;;;;;;;2.70;1.40;;;;;;;;;;5073571;28;20029;-77
2022/12/23 10:44:46;;;;;;;1.70;1.60;;;;;;;;;;5067130;28;20505;-78
2022/12/23 10:47:46;;;;;;;1.40;1.30;;;;;;;;;;5075244;28;20028;-80
2022/12/23 10:50:44;;;;;;;1.70;1.60;;;;;;;;;;5072836;28;20119;-77
2022/12/23 10:53:14;;;;;;;2.67;1.80;;;;;;;;;;5073668;28;20391;-77
2022/12/23 10:55:40;;;;;;;2.75;1.27;;;;;;;;;;5083757;28;20032;-77
2022/12/23 10:58:17;;;;;;;1.40;1.30;;;;;;;;;;5053807;28;20035;-76
2022/12/23 11:00:48;;;;;;;1.27;1.25;;;;;;;;;;5072091;28;20116;-76
2022/12/23 11:03:22;;;;;;;1.30;1.20;;;;;;;;;;5070308;28;20027;-79
2022/12/23 11:05:50;;;;;;;1.92;1.40;;;;;;;;;;5070861;28;20035;-78
2022/12/23 11:08:20;;;;;;;2.50;1.80;;;;;;;;;;5051347;28;20548;-78
2022/12/23 11:10:46;;;;;;;1.38;1.27;;;;;;;;;;5072137;28;20041;-78
2022/12/23 11:13:31;;;;;;;2.35;1.35;;;;;;;;;;5071334;28;20080;-78
2022/12/23 11:16:22;;;;;;;5.70;1.20;;;;;;;;;;5071186;28;20028;-78
2022/12/23 11:19:04;;;;;;;1.50;1.40;;;;;;;;;;5071395;28;20032;-78
2022/12/23 11:21:31;;;;;;;5.57;3.42;;;;;;;;;;5070461;28;20089;-79
2022/12/23 11:24:16;;;;;;;5.93;3.08;;;;;;;;;;5071117;28;20025;-78
2022/12/23 11:26:47;;;;;;;19.95;6.90;;;;;;;;;;5067704;28;20057;-79
2022/12/23 11:29:28;;;;;;;16.15;6.47;;;;;;;;;;5053644;28;20031;-78
2022/12/23 11:31:56;;;;;;;8.73;4.50;;;;;;;;;;5065163;28;20522;-78
2022/12/23 11:34:24;;;;;;;15.43;8.38;;;;;;;;;;5051995;28;20430;-79
2022/12/23 11:36:53;;;;;;;7.22;4.13;;;;;;;;;;5068351;28;20060;-78
2022/12/23 11:39:33;;;;;;;26.10;9.75;;;;;;;;;;5065775;28;20027;-78
2022/12/23 11:42:11;;;;;;;28.10;10.48;;;;;;;;;;5083867;28;20106;-79
2022/12/23 11:44:45;;;;;;;26.75;9.73;;;;;;;;;;5071282;28;20033;-78
2022/12/23 11:47:16;;;;;;;31.45;12.70;;;;;;;;;;5066998;28;20137;-78
2022/12/23 11:49:49;;;;;;;4.53;2.60;;;;;;;;;;5082168;28;20033;-79
2022/12/23 11:52:18;;;;;;;3.00;1.70;;;;;;;;;;5068175;28;20486;-78
2022/12/23 11:54:56;;;;;;;5.45;3.28;;;;;;;;;;5051302;28;20028;-77
2022/12/23 11:57:32;;;;;;;10.88;6.07;;;;;;;;;;5049430;28;20025;-78
2022/12/23 12:00:01;;;;;;;22.42;12.93;;;;;;;;;;5068086;28;20111;-79
2022/12/23 12:02:26;;;;;;;;;;;;;;;;;;5069067;28;20036;-78
2022/12/23 12:04:58;;;;;;;7.15;4.57;;;;;;;;;;5063387;28;19912;-78
2022/12/23 12:07:24;;;;;;;7.70;4.80;;;;;;;;;;5051575;28;20016;-78
2022/12/23 12:09:50;;;;;;;5.38;3.40;;;;;;;;;;5070075;28;20483;-78
2022/12/23 12:12:19;;;;;;;2.95;1.67;;;;;;;;;;5070457;28;20037;-78
2022/12/23 12:14:53;;;;;;;2.35;2.15;;;;;;;;;;5070711;28;20048;-78
2022/12/23 12:17:22;;;;;;;3.40;3.10;;;;;;;;;;5082744;28;20486;-78
2022/12/23 12:20:04;;;;;;;5.15;3.67;;;;;;;;;;5053287;28;20470;-78
2022/12/23 12:22:38;;;;;;;7.25;4.20;;;;;;;;;;5070197;28;20115;-78
2022/12/23 12:25:33;;;;;;;6.15;3.90;;;;;;;;;;5071555;28;20382;-79
2022/12/23 12:28:03;;;;;;;7.57;4.40;;;;;;;;;;5069826;28;20465;-79
2022/12/23 12:30:38;;;;;;;7.07;3.97;;;;;;;;;;5071156;28;20086;-79
2022/12/23 12:33:16;;;;;;;4.30;3.08;;;;;;;;;;5052302;28;20024;-79
2022/12/23 12:35:53;;;;;;;5.90;3.30;;;;;;;;;;5069773;28;20437;-78
2022/12/23 12:38:24;;;;;;;6.57;3.70;;;;;;;;;;5074411;28;20055;-79
2022/12/23 12:41:00;;;;;;;3.30;2.15;;;;;;;;;;5072375;28;20032;-79
2022/12/23 12:43:30;;;;;;;5.60;3.30;;;;;;;;;;5072082;28;20034;-78
2022/12/23 12:46:24;;;;;;;11.40;4.93;;;;;;;;;;5070726;28;20051;-78
2022/12/23 12:48:53;;;;;;;11.32;5.30;;;;;;;;;;5069462;28;20043;-79
2022/12/23 12:51:23;;;;;;;5.40;3.40;;;;;;;;;;5072377;28;20036;-78
2022/12/23 12:54:05;;;;;;;4.40;3.50;;;;;;;;;;5069578;28;20123;-78
2022/12/23 12:56:47;;;;;;;3.03;2.17;;;;;;;;;;5070244;28;20037;-78
2022/12/23 12:59:20;;;;;;;3.42;2.40;;;;;;;;;;5074465;28;20509;-78
2022/12/23 13:02:10;;;;;;;2.50;1.40;;;;;;;;;;5063597;28;20028;-79
2022/12/23 13:05:04;;;;;;;1.75;1.25;;;;;;;;;;5074439;28;20103;-78
2022/12/23 13:07:53;;;;;;;2.75;1.65;;;;;;;;;;5071930;28;20028;-78
2022/12/23 13:10:44;;;;;;;3.33;2.00;;;;;;;;;;5070668;28;20028;-77
2022/12/23 13:13:42;;;;;;;3.45;1.67;;;;;;;;;;5066510;28;20052;-78
2022/12/23 13:16:19;;;;;;;1.98;1.30;;;;;;;;;;5068741;28;20024;-78
2022/12/23 13:18:50;;;;;;;2.83;1.90;;;;;;;;;;5070168;28;20052;-79
2022/12/23 13:21:30;;;;;;;2.33;1.88;;;;;;;;;;5072162;28;20020;-78
2022/12/23 13:24:17;;;;;;;1.67;1.55;;;;;;;;;;5083666;28;20020;-79
2022/12/23 13:27:10;;;;;;;1.95;1.75;;;;;;;;;;5068369;28;20032;-78
2022/12/23 13:29:53;;;;;;;1.65;1.30;;;;;;;;;;5070919;28;20029;-78
2022/12/23 13:32:40;;;;;;;3.17;1.77;;;;;;;;;;5069644;28;20428;-79
2022/12/23 13:35:24;;;;;;;1.70;1.40;;;;;;;;;;5052460;28;20108;-78
2022/12/23 13:37:52;;;;;;;1.23;1.13;;;;;;;;;;5067746;28;20033;-78
2022/12/23 13:40:44;;;;;;;6.65;2.40;;;;;;;;;;5067545;28;20036;-78
2022/12/23 13:43:19;;;;;;;3.15;2.13;;;;;;;;;;5068393;28;20048;-78
2022/12/23 13:45:46;;;;;;;2.65;2.15;;;;;;;;;;5067738;28;20035;-79
2022/12/23 13:48:35;;;;;;;2.83;1.98;;;;;;;;;;5069862;28;20024;-79
2022/12/23 13:51:32;;;;;;;4.28;2.08;;;;;;;;;;5065265;28;20567;-79
2022/12/23 13:54:15;;;;;;;2.55;2.20;;;;;;;;;;5064580;28;20040;-79
2022/12/23 13:56:42;;;;;;;4.22;1.83;;;;;;;;;;5059362;28;20070;-78
2022/12/23 13:59:13;;;;;;;3.10;1.70;;;;;;;;;;5067924;28;20111;-79
2022/12/23 14:01:38;;;;;;;3.63;2.55;;;;;;;;;;5070988;28;20027;-78
2022/12/23 14:04:33;;;;;;;1.63;1.33;;;;;;;;;;5053857;28;20367;-78
2022/12/23 14:07:02;;;;;;;2.55;1.92;;;;;;;;;;5071338;28;20150;-79
2022/12/23 14:09:34;;;;;;;3.25;2.50;;;;;;;;;;5055199;28;20036;-79
2022/12/23 14:12:20;;;;;;;4.38;2.22;;;;;;;;;;5072616;28;20032;-79
2022/12/23 14:15:36;;;;;;;2.38;1.63;;;;;;;;;;5068423;28;20033;-79
2022/12/23 14:18:13;;;;;;;1.80;1.50;;;;;;;;;;5053772;28;20032;-79
2022/12/23 14:20:50;;;;;;;2.92;2.08;;;;;;;;;;5065461;28;20029;-77
2022/12/23 14:23:37;;;;;;;3.25;1.90;;;;;;;;;;5071506;28;20108;-78
2022/12/23 14:26:16;;;;;;;2.90;1.90;;;;;;;;;;5071528;28;20103;-79
2022/12/23 14:28:59;;;;;;;8.88;5.10;;;;;;;;;;5070125;28;20028;-80
2022/12/23 14:31:40;;;;;;;5.82;3.03;;;;;;;;;;5072543;28;20048;-77
2022/12/23 14:34:21;;;;;;;4.40;3.08;;;;;;;;;;5049752;28;20036;-79
2022/12/23 14:37:24;;;;;;;8.25;3.88;;;;;;;;;;5068783;28;20031;-77
2022/12/23 14:39:50;;;;;;;9.80;3.83;;;;;;;;;;5074834;28;20024;-78
2022/12/23 14:42:42;;;;;;;2.53;1.85;;;;;;;;;;5072380;28;20653;-79
2022/12/23 14:45:29;;;;;;;3.50;2.03;;;;;;;;;;5072858;28;20039;-78
2022/12/23 14:47:54;;;;;;;3.28;2.00;;;;;;;;;;5072953;28;20511;-79
2022/12/23 14:50:33;;;;;;;1.52;1.38;;;;;;;;;;5075542;28;20101;-79
2022/12/23 14:53:01;;;;;;;1.70;1.40;;;;;;;;;;5067516;28;20052;-79
2022/12/23 14:55:38;;;;;;;2.22;1.80;;;;;;;;;;5068557;28;20036;-81
2022/12/23 14:58:16;;;;;;;1.70;1.40;;;;;;;;;;5073688;28;20074;-78
2022/12/23 15:00:48;;;;;;;2.05;1.65;;;;;;;;;;5070250;28;20020;-80
2022/12/23 15:03:15;;;;;;;3.38;2.70;;;;;;;;;;5073233;28;20052;-80
2022/12/23 15:05:43;;;;;;;1.33;1.20;;;;;;;;;;5072825;28;20051;-78
2022/12/23 15:08:39;;;;;;;1.58;0.98;;;;;;;;;;5073016;28;20106;-80
2022/12/23 15:11:17;;;;;;;1.10;1.00;;;;;;;;;;5071156;28;20051;-80
2022/12/23 15:13:45;;;;;;;1.10;1.00;;;;;;;;;;5073083;28;20447;-79
2022/12/23 15:16:38;;;;;;;1.55;0.90;;;;;;;;;;5055157;28;20422;-79
2022/12/23 15:19:24;;;;;;;2.05;1.42;;;;;;;;;;5071014;28;20120;-80
2022/12/23 15:22:02;;;;;;;1.10;1.00;;;;;;;;;;5074634;28;20505;-80
2022/12/23 15:24:30;;;;;;;1.33;0.90;;;;;;;;;;5075035;28;20104;-79
2022/12/23 15:27:00;;;;;;;1.33;1.10;;;;;;;;;;5078330;28;20044;-79
2022/12/23 15:29:28;;;;;;;1.05;1.00;;;;;;;;;;5051900;28;20020;-78
2022/12/23 15:31:56;;;;;;;1.30;1.20;;;;;;;;;;5069829;28;20099;-81
2022/12/23 15:34:29;;;;;;;1.65;1.48;;;;;;;;;;5069352;28;20016;-79
2022/12/23 15:36:58;;;;;;;1.13;1.02;;;;;;;;;;5050022;28;20044;-78
2022/12/23 15:39:36;;;;;;;2.10;1.10;;;;;;;;;;5052403;28;20347;-79
2022/12/23 15:42:03;;;;;;;4.30;1.70;;;;;;;;;;5068908;28;20028;-77
2022/12/23 15:44:37;;;;;;;2.35;1.55;;;;;;;;;;5075056;28;20409;-79